MMSP

Details ICAO MMSP (SLP)
Name PONCIANO ARRIAGA INTL
Region Mexico
Timezone America/Mexico_City (UTC-6.0)
Plans Departing 5
Arriving 15
Stats Elevation 6,035 ft / 1,839 m (AMSL)
Location 22.258688° -100.932580°
Runways 2
Magnetic Variation 5.371° E
Sunrise 2017-12-11 13:14:41 UTC / 2017-12-11 07:14:41 Local
Sunset 2017-12-12 00:02:27 UTC / 2017-12-11 18:02:27 Local
Advertisement - Login to hide

Runways

ID Width Length Bearing (true) Bearing (mag) Surface Threshold Offset Overrun Length
04 98 ft / 30 m 3,264 ft / 995 m 47.19° 41.82° Asphalt 0 ft / 0 m 120 ft / 37 m
14 148 ft / 45 m 9,893 ft / 3,015 m 149.34° 143.97° Asphalt 0 ft / 0 m 191 ft / 58 m
22 98 ft / 30 m 3,264 ft / 995 m 227.19° 221.82° Asphalt 0 ft / 0 m 98 ft / 30 m
32 148 ft / 45 m 9,893 ft / 3,015 m 329.35° 323.98° Asphalt 0 ft / 0 m 191 ft / 58 m

Map

Weather


0- 5 10 15 20 25 30 35+ Temperature / ° C

Clouds and Precipitation
Forecast for 2017-12-12 00:00 UTC. Updated 2 hours ago

Ground ~20,000 ft ~40,000 ft Winds

METAR

Not found

TAF

TAF MMSP 111121Z 1112/1218 06005KT P6SM BKN250 TX16/1121Z TNM04/1112Z FM111700 08010KT P6SM OVC250 FM120200 06005KT P6SM BKN250 FM121600 08010KT P6SM BKN250

Frequencies

Approach 118.90 MHz POTOSI APP/TWR
Warning: Do not use this data for real-world aviation or navigation. No guarantee of current accuracy is given.